createdAt,value
2022-09-01T00:00:30.213Z,12.19
2022-09-01T00:03:04.824Z,12.15
2022-09-01T00:05:33.387Z,12.11
2022-09-01T00:08:01.773Z,12.09
2022-09-01T00:10:30.405Z,12.06
2022-09-01T00:12:58.763Z,12.05
2022-09-01T00:15:27.265Z,12.02
2022-09-01T00:17:56.293Z,12.01
2022-09-01T00:20:24.641Z,11.97
2022-09-01T00:22:52.936Z,11.93
2022-09-01T00:25:22.145Z,11.90
2022-09-01T00:27:51.856Z,11.87
2022-09-01T00:30:20.751Z,11.85
2022-09-01T00:32:49.097Z,11.84
2022-09-01T00:35:19.919Z,11.82
2022-09-01T00:37:48.223Z,11.80
2022-09-01T00:40:18.245Z,11.78
2022-09-01T00:42:49.196Z,11.74
2022-09-01T00:45:19.659Z,11.70
2022-09-01T00:47:50.074Z,11.66
2022-09-01T00:50:20.962Z,11.63
2022-09-01T00:52:55.633Z,11.62
2022-09-01T00:55:30.130Z,11.61
2022-09-01T00:58:03.794Z,11.59
2022-09-01T01:00:34.621Z,11.58
2022-09-01T01:03:02.979Z,11.55
2022-09-01T01:05:39.644Z,11.51
2022-09-01T01:08:12.030Z,11.47
2022-09-01T01:10:42.428Z,11.45
2022-09-01T01:13:14.302Z,11.41
2022-09-01T01:15:44.369Z,11.40
2022-09-01T01:18:14.504Z,11.40
2022-09-01T01:21:25.377Z,11.39
2022-09-01T01:24:02.305Z,11.37
2022-09-01T01:26:31.019Z,11.33
2022-09-01T01:29:01.824Z,11.29
2022-09-01T01:31:30.572Z,11.25
2022-09-01T01:33:59.499Z,11.21
2022-09-01T01:36:32.834Z,11.19
2022-09-01T01:39:05.667Z,11.18
2022-09-01T01:41:36.393Z,11.16
2022-09-01T01:44:05.918Z,11.13
2022-09-01T01:46:36.847Z,11.11
2022-09-01T01:49:05.232Z,11.07
2022-09-01T01:51:34.683Z,11.05
2022-09-01T01:54:06.244Z,11.01
2022-09-01T01:56:40.045Z,10.99
2022-09-01T01:59:11.939Z,10.99
2022-09-01T02:01:40.858Z,10.99
2022-09-01T02:04:11.546Z,10.98
2022-09-01T02:06:46.142Z,10.95
2022-09-01T02:09:17.265Z,10.93
2022-09-01T02:11:47.025Z,10.88
2022-09-01T02:14:16.405Z,10.84
2022-09-01T02:16:44.671Z,10.80
2022-09-01T02:19:13.030Z,10.77
2022-09-01T02:21:49.210Z,10.75
2022-09-01T02:24:17.577Z,10.75
2022-09-01T02:26:49.156Z,10.73
2022-09-01T02:29:26.750Z,10.71
2022-09-01T02:31:56.992Z,10.69
2022-09-01T02:34:27.948Z,10.65
2022-09-01T02:36:57.957Z,10.61
2022-09-01T02:39:34.699Z,10.58
2022-09-01T02:42:03.033Z,10.55
2022-09-01T02:44:32.376Z,10.54
2022-09-01T02:47:02.192Z,10.53
2022-09-01T02:49:31.703Z,10.53
2022-09-01T02:52:02.106Z,10.51
2022-09-01T02:54:32.711Z,10.48
2022-09-01T02:57:02.060Z,10.47
2022-09-01T02:59:30.760Z,10.43
2022-09-01T03:01:59.038Z,10.39
2022-09-01T03:04:27.598Z,10.36
2022-09-01T03:06:59.090Z,10.36
2022-09-01T03:09:28.359Z,10.36
2022-09-01T03:11:57.387Z,10.35
2022-09-01T03:14:26.175Z,10.33
2022-09-01T03:16:55.058Z,10.30
2022-09-01T03:19:24.132Z,10.27
2022-09-01T03:21:52.420Z,10.24
2022-09-01T03:24:22.241Z,10.22
2022-09-01T03:26:51.098Z,10.19
2022-09-01T03:29:19.738Z,10.19
2022-09-01T03:31:49.332Z,10.20
2022-09-01T03:34:21.008Z,10.21
2022-09-01T03:36:54.712Z,10.20
2022-09-01T03:39:23.009Z,10.18
2022-09-01T03:41:51.327Z,10.18
2022-09-01T03:44:19.626Z,10.17
2022-09-01T03:46:48.059Z,10.15
2022-09-01T03:49:25.238Z,10.14
2022-09-01T03:51:54.159Z,10.15
2022-09-01T03:54:28.578Z,10.16
2022-09-01T03:57:00.254Z,10.18
2022-09-01T03:59:30.279Z,10.19
2022-09-01T04:02:00.540Z,10.21
2022-09-01T04:04:33.133Z,10.21
2022-09-01T04:07:01.765Z,10.21
2022-09-01T04:09:30.041Z,10.22
2022-09-01T04:11:58.568Z,10.24
2022-09-01T04:14:29.222Z,10.28
2022-09-01T04:17:17.970Z,10.32
2022-09-01T04:19:47.741Z,10.33
2022-09-01T04:22:18.001Z,10.34
2022-09-01T04:24:47.053Z,10.34
2022-09-01T04:27:18.359Z,10.34
2022-09-01T04:29:48.003Z,10.35
2022-09-01T04:32:17.231Z,10.38
2022-09-01T04:34:45.564Z,10.40
2022-09-01T04:37:21.476Z,10.44
2022-09-01T04:39:56.635Z,10.46
2022-09-01T04:42:29.522Z,10.47
2022-09-01T04:45:03.145Z,10.51
2022-09-01T04:47:42.345Z,10.55
2022-09-01T04:50:17.960Z,10.58
2022-09-01T04:52:48.054Z,10.62
2022-09-01T04:55:19.052Z,10.66
2022-09-01T04:57:49.804Z,10.69
2022-09-01T05:00:24.466Z,10.71
2022-09-01T05:03:05.049Z,10.72
2022-09-01T05:05:43.023Z,10.73
2022-09-01T05:08:23.851Z,10.75
2022-09-01T05:10:55.976Z,10.77
2022-09-01T05:13:24.941Z,10.82
2022-09-01T05:16:13.526Z,10.88
2022-09-01T05:18:48.031Z,10.94
2022-09-01T05:21:22.523Z,10.98
2022-09-01T05:23:52.112Z,11.00
2022-09-01T05:26:26.652Z,11.03
2022-09-01T05:29:01.624Z,11.04
2022-09-01T05:31:35.138Z,11.07
2022-09-01T05:34:05.072Z,11.12
2022-09-01T05:36:33.822Z,11.16
2022-09-01T05:39:02.749Z,11.21
2022-09-01T05:41:31.843Z,11.26
2022-09-01T05:44:02.622Z,11.32
2022-09-01T05:46:31.150Z,11.35
2022-09-01T05:48:59.575Z,11.35
2022-09-01T05:51:44.377Z,11.38
2022-09-01T05:54:15.152Z,11.43
2022-09-01T05:56:45.229Z,11.49
2022-09-01T05:59:23.823Z,11.54
2022-09-01T06:01:55.250Z,11.60
2022-09-01T06:04:25.835Z,11.64
2022-09-01T06:07:05.677Z,11.68
2022-09-01T06:09:45.421Z,11.72
2022-09-01T06:12:19.006Z,11.76
2022-09-01T06:14:48.991Z,11.83
2022-09-01T06:17:20.444Z,11.90
2022-09-01T06:19:49.253Z,11.95
2022-09-01T06:22:17.763Z,12.01
2022-09-01T06:24:49.637Z,12.07
2022-09-01T06:27:21.989Z,12.13
2022-09-01T06:29:53.888Z,12.18
2022-09-01T06:32:26.221Z,12.25
2022-09-01T06:34:54.921Z,12.34
2022-09-01T06:37:23.383Z,12.35
2022-09-01T06:39:51.987Z,12.34
2022-09-01T06:42:20.251Z,12.30
2022-09-01T06:44:48.542Z,12.28
2022-09-01T06:47:16.850Z,12.27
2022-09-01T06:49:45.191Z,12.31
2022-09-01T06:52:14.027Z,12.34
2022-09-01T06:54:44.260Z,12.38
2022-09-01T07:00:01.612Z,12.39
2022-09-01T07:02:33.731Z,12.41
2022-09-01T07:05:03.049Z,12.42
2022-09-01T07:10:28.198Z,12.36
2022-09-01T07:13:06.879Z,12.35
2022-09-01T07:18:31.410Z,12.42
2022-09-01T07:24:10.318Z,12.51
2022-09-01T07:26:48.539Z,12.60
2022-09-01T07:29:22.252Z,12.68
2022-09-01T07:31:51.974Z,12.75
2022-09-01T07:34:39.927Z,12.79
2022-09-01T07:38:47.735Z,12.81
2022-09-01T07:39:57.131Z,12.85
2022-09-01T07:42:30.263Z,12.44
2022-09-01T07:45:26.211Z,12.95
2022-09-01T07:47:55.719Z,13.01
2022-09-01T07:53:22.706Z,13.13
2022-09-01T07:55:53.307Z,13.17
2022-09-01T07:58:24.798Z,13.21
2022-09-01T08:00:54.808Z,13.25
2022-09-01T08:03:25.789Z,13.29
2022-09-01T08:05:58.017Z,13.34
2022-09-01T08:08:29.429Z,13.41
2022-09-01T08:11:05.318Z,13.47
2022-09-01T08:13:41.187Z,13.52
2022-09-01T08:16:19.740Z,13.58
2022-09-01T08:18:49.677Z,13.64
2022-09-01T08:21:19.457Z,13.72
2022-09-01T08:23:48.273Z,13.79
2022-09-01T08:26:19.151Z,13.87
2022-09-01T08:28:55.041Z,13.94
2022-09-01T08:31:26.196Z,13.99
2022-09-01T08:33:59.613Z,14.03
2022-09-01T08:36:27.962Z,14.06
2022-09-01T08:38:56.334Z,14.10
2022-09-01T08:42:06.189Z,14.14
2022-09-01T08:44:54.904Z,14.20
2022-09-01T08:47:43.621Z,14.28
2022-09-01T08:50:12.468Z,14.37
2022-09-01T08:52:56.980Z,14.43
2022-09-01T08:55:35.493Z,14.51
2022-09-01T08:58:05.102Z,14.59
2022-09-01T09:00:54.877Z,14.68
2022-09-01T09:03:42.924Z,14.78
2022-09-01T09:06:55.189Z,14.88
2022-09-01T09:09:35.337Z,15.00
2022-09-01T09:12:16.522Z,15.12
2022-09-01T09:15:00.977Z,15.20
2022-09-01T09:17:36.985Z,15.25
2022-09-01T09:20:06.836Z,15.31
2022-09-01T09:22:35.232Z,15.36
2022-09-01T09:25:19.391Z,15.37
2022-09-01T09:28:00.470Z,15.39
2022-09-01T09:30:31.606Z,15.46
2022-09-01T09:35:55.594Z,15.60
2022-09-01T09:38:29.526Z,15.69
2022-09-01T09:44:23.330Z,15.80
2022-09-01T09:46:52.087Z,15.84
2022-09-01T09:49:36.816Z,15.89
2022-09-01T09:52:09.242Z,15.92
2022-09-01T09:54:40.803Z,15.96
2022-09-01T09:57:09.054Z,16.00
2022-09-01T10:00:01.152Z,16.03
2022-09-01T10:02:37.121Z,16.03
2022-09-01T10:05:43.414Z,16.05
2022-09-01T10:08:37.598Z,16.03
2022-09-01T10:11:08.137Z,16.02
2022-09-01T10:13:36.997Z,16.07
2022-09-01T10:16:12.982Z,16.10
2022-09-01T10:18:45.311Z,16.14
2022-09-01T10:21:24.410Z,16.18
2022-09-01T10:23:53.974Z,16.20
2022-09-01T10:26:25.781Z,16.21
2022-09-01T10:29:06.592Z,16.22
2022-09-01T10:31:37.240Z,16.19
2022-09-01T10:34:08.083Z,16.23
2022-09-01T10:36:39.500Z,16.32
2022-09-01T10:39:12.760Z,16.35
2022-09-01T10:41:47.598Z,16.31
2022-09-01T10:44:24.569Z,16.20
2022-09-01T10:46:59.965Z,16.17
2022-09-01T10:49:33.297Z,16.21
2022-09-01T10:52:07.582Z,16.26
2022-09-01T10:54:50.996Z,16.33
2022-09-01T10:57:27.878Z,16.37
2022-09-01T11:00:36.177Z,16.33
2022-09-01T11:06:13.201Z,16.26
2022-09-01T11:08:50.985Z,16.25
2022-09-01T11:11:32.122Z,16.21
2022-09-01T11:14:01.637Z,16.23
2022-09-01T11:16:49.325Z,16.31
2022-09-01T11:19:21.984Z,16.36
2022-09-01T11:22:09.437Z,16.40
2022-09-01T11:24:53.428Z,16.44
2022-09-01T11:27:51.061Z,16.52
2022-09-01T11:30:31.210Z,16.60
2022-09-01T11:33:31.458Z,16.67
2022-09-01T11:36:07.246Z,16.77
2022-09-01T11:39:03.124Z,16.86
2022-09-01T11:41:34.282Z,16.93
2022-09-01T11:44:11.954Z,16.94
2022-09-01T11:46:43.559Z,16.98
2022-09-01T11:49:30.147Z,17.01
2022-09-01T11:52:01.333Z,17.06
2022-09-01T11:54:38.228Z,17.06
2022-09-01T11:57:25.565Z,17.08
2022-09-01T11:59:55.334Z,17.14
2022-09-01T12:02:29.242Z,17.22
2022-09-01T12:04:58.131Z,17.26
2022-09-01T12:07:45.226Z,17.31
2022-09-01T12:10:27.671Z,17.37
2022-09-01T12:13:21.233Z,17.39
2022-09-01T12:16:18.524Z,17.34
2022-09-01T12:18:51.697Z,17.27
2022-09-01T12:21:24.674Z,17.27
2022-09-01T12:23:54.256Z,17.31
2022-09-01T12:26:29.413Z,17.39
2022-09-01T12:28:57.940Z,17.52
2022-09-01T12:31:27.027Z,17.62
2022-09-01T12:33:56.848Z,17.71
2022-09-01T12:36:27.963Z,17.77
2022-09-01T12:39:17.561Z,17.81
2022-09-01T12:41:47.351Z,17.84
2022-09-01T12:44:51.740Z,17.83
2022-09-01T12:47:38.010Z,17.92
2022-09-01T12:50:07.962Z,18.01
2022-09-01T12:52:45.070Z,18.12
2022-09-01T12:58:10.500Z,18.27
2022-09-01T13:00:59.257Z,18.31
2022-09-01T13:03:29.989Z,18.36
2022-09-01T13:06:00.964Z,18.39
2022-09-01T13:08:33.401Z,18.38
2022-09-01T13:11:11.520Z,18.42
2022-09-01T13:13:40.319Z,18.47
2022-09-01T13:16:13.286Z,18.49
2022-09-01T13:21:34.770Z,18.57
2022-09-01T13:24:05.602Z,18.60
2022-09-01T13:26:34.036Z,18.67
2022-09-01T13:29:02.312Z,18.70
2022-09-01T13:31:32.037Z,18.68
2022-09-01T13:34:22.980Z,18.62
2022-09-01T13:36:52.443Z,18.55
2022-09-01T13:39:22.860Z,18.37
2022-09-01T13:41:51.464Z,18.15
2022-09-01T13:44:20.029Z,18.06
2022-09-01T13:50:05.380Z,18.04
2022-09-01T13:52:25.489Z,17.87
2022-09-01T13:54:54.304Z,17.71
2022-09-01T13:57:22.714Z,17.56
2022-09-01T13:59:52.027Z,17.46
2022-09-01T14:02:20.858Z,17.39
2022-09-01T14:04:56.936Z,17.29
2022-09-01T14:07:25.473Z,17.06
2022-09-01T14:09:55.352Z,16.92
2022-09-01T14:12:23.634Z,16.81
2022-09-01T14:17:40.518Z,16.67
2022-09-01T14:20:13.138Z,16.63
2022-09-01T14:22:42.164Z,16.59
2022-09-01T14:25:10.979Z,16.45
2022-09-01T14:27:39.318Z,16.35
2022-09-01T14:30:10.890Z,16.29
2022-09-01T14:32:39.493Z,16.21
2022-09-01T14:35:08.369Z,16.12
2022-09-01T14:37:45.963Z,16.08
2022-09-01T14:40:16.775Z,16.08
2022-09-01T14:42:49.615Z,16.08
2022-09-01T14:45:21.152Z,16.09
2022-09-01T14:47:51.553Z,16.14
2022-09-01T14:50:22.940Z,16.20
2022-09-01T14:52:55.372Z,16.28
2022-09-01T14:55:26.109Z,16.36
2022-09-01T14:57:55.442Z,16.38
2022-09-01T15:00:28.011Z,16.43
2022-09-01T15:02:56.668Z,16.49
2022-09-01T15:05:25.908Z,16.52
2022-09-01T15:07:54.828Z,16.55
2022-09-01T15:10:26.065Z,16.61
2022-09-01T15:12:57.783Z,16.65
2022-09-01T15:15:28.471Z,16.67
2022-09-01T15:17:57.561Z,16.65
2022-09-01T15:20:44.864Z,16.65
2022-09-01T15:23:19.189Z,16.64
2022-09-01T15:25:49.370Z,16.64
2022-09-01T15:28:18.107Z,16.62
2022-09-01T15:30:47.322Z,16.60
2022-09-01T15:33:16.348Z,16.59
2022-09-01T15:35:46.185Z,16.57
2022-09-01T15:38:17.787Z,16.51
2022-09-01T15:40:57.164Z,16.48
2022-09-01T15:43:29.261Z,16.47
2022-09-01T15:45:59.103Z,16.46
2022-09-01T15:48:29.131Z,16.45
2022-09-01T15:51:22.745Z,16.42
2022-09-01T15:53:53.008Z,16.42
2022-09-01T15:56:22.021Z,16.41
2022-09-01T15:59:00.817Z,16.40
2022-09-01T16:01:33.800Z,16.38
2022-09-01T16:04:03.710Z,16.37
2022-09-01T16:06:35.145Z,16.35
2022-09-01T16:09:04.718Z,16.33
2022-09-01T16:11:33.068Z,16.31
2022-09-01T16:14:02.185Z,16.30
2022-09-01T16:16:48.815Z,16.28
2022-09-01T16:19:36.907Z,16.26
2022-09-01T16:22:08.232Z,16.25
2022-09-01T16:24:45.840Z,16.23
2022-09-01T16:27:21.308Z,16.23
2022-09-01T16:29:51.979Z,16.22
2022-09-01T16:32:22.287Z,16.20
2022-09-01T16:34:52.614Z,16.19
2022-09-01T16:37:36.338Z,16.18
2022-09-01T16:40:37.263Z,16.17
2022-09-01T16:43:20.919Z,16.18
2022-09-01T16:46:14.080Z,16.20
2022-09-01T16:48:48.330Z,16.22
2022-09-01T16:51:42.707Z,16.25
2022-09-01T16:54:26.322Z,16.26
2022-09-01T16:57:06.799Z,16.25
2022-09-01T16:59:55.459Z,16.23
2022-09-01T17:02:37.953Z,16.19
2022-09-01T17:05:12.812Z,16.14
2022-09-01T17:07:52.814Z,16.09
2022-09-01T17:10:37.419Z,16.04
2022-09-01T17:13:47.726Z,15.95
2022-09-01T17:16:29.386Z,15.87
2022-09-01T17:19:05.124Z,15.81
2022-09-01T17:21:48.609Z,15.76
2022-09-01T17:24:36.585Z,15.73
2022-09-01T17:27:28.437Z,15.70
2022-09-01T17:29:57.967Z,15.67
2022-09-01T17:32:56.579Z,15.62
2022-09-01T17:35:32.250Z,15.58
2022-09-01T17:38:30.295Z,15.55
2022-09-01T17:41:14.297Z,15.51
2022-09-01T17:44:13.355Z,15.48
2022-09-01T17:46:59.527Z,15.48
2022-09-01T17:49:59.579Z,15.48
2022-09-01T17:53:10.563Z,15.48
2022-09-01T17:55:51.719Z,15.46
2022-09-01T17:58:23.337Z,15.43
2022-09-01T18:01:10.065Z,15.41
2022-09-01T18:04:09.651Z,15.39
2022-09-01T18:07:05.271Z,15.35
2022-09-01T18:09:47.318Z,15.29
2022-09-01T18:12:21.369Z,15.24
2022-09-01T18:15:03.321Z,15.19
2022-09-01T18:17:56.299Z,15.13
2022-09-01T18:20:31.509Z,15.10
2022-09-01T18:23:09.173Z,15.07
2022-09-01T18:25:57.059Z,15.03
2022-09-01T18:28:27.699Z,14.98
2022-09-01T18:31:26.012Z,14.96
2022-09-01T18:34:00.457Z,14.89
2022-09-01T18:37:03.032Z,14.83
2022-09-01T18:39:54.120Z,14.76
2022-09-01T18:42:43.985Z,14.69
2022-09-01T18:45:40.711Z,14.64
2022-09-01T18:48:30.900Z,14.58
2022-09-01T18:51:26.718Z,14.53
2022-09-01T18:54:24.404Z,14.51
2022-09-01T18:57:03.083Z,14.49
2022-09-01T18:59:37.395Z,14.46
2022-09-01T19:02:21.082Z,14.44
2022-09-01T19:05:00.442Z,14.42
2022-09-01T19:07:53.445Z,14.37
2022-09-01T19:10:31.650Z,14.32
2022-09-01T19:13:34.118Z,14.28
2022-09-01T19:16:50.151Z,14.24
2022-09-01T19:19:37.420Z,14.20
2022-09-01T19:22:12.009Z,14.17
2022-09-01T19:28:18.129Z,14.14
2022-09-01T19:31:07.194Z,14.13
2022-09-01T19:34:19.606Z,14.11
2022-09-01T19:36:58.257Z,14.06
2022-09-01T19:39:50.877Z,14.02
2022-09-01T19:42:40.130Z,13.97
2022-09-01T19:45:27.468Z,13.92
2022-09-01T19:48:15.391Z,13.88
2022-09-01T19:51:09.234Z,13.85
2022-09-01T19:53:47.382Z,13.82
2022-09-01T19:56:32.230Z,13.81
2022-09-01T19:59:21.609Z,13.80
2022-09-01T20:04:58.700Z,13.75
2022-09-01T20:07:49.195Z,13.72
2022-09-01T20:10:56.616Z,13.69
2022-09-01T20:13:44.496Z,13.66
2022-09-01T20:16:31.420Z,13.65
2022-09-01T20:19:25.543Z,13.62
2022-09-01T20:21:54.189Z,13.57
2022-09-01T20:24:42.169Z,13.53
2022-09-01T20:27:41.296Z,13.49
2022-09-01T20:30:13.522Z,13.44
2022-09-01T20:32:57.513Z,13.39
2022-09-01T20:35:40.870Z,13.36
2022-09-01T20:38:53.761Z,13.33
2022-09-01T20:41:39.317Z,13.32
2022-09-01T20:44:26.853Z,13.31
2022-09-01T20:46:56.049Z,13.28
2022-09-01T20:49:31.629Z,13.25
2022-09-01T20:52:34.963Z,13.21
2022-09-01T20:55:43.284Z,13.16
2022-09-01T20:58:44.613Z,13.10
2022-09-01T21:01:37.750Z,13.07
2022-09-01T21:04:15.152Z,13.05
2022-09-01T21:07:22.101Z,13.04
2022-09-01T21:10:17.920Z,13.00
2022-09-01T21:13:39.022Z,12.95
2022-09-01T21:16:19.333Z,12.91
2022-09-01T21:19:05.022Z,12.87
2022-09-01T21:21:45.213Z,12.84
2022-09-01T21:24:13.514Z,12.83
2022-09-01T21:26:42.034Z,12.82
2022-09-01T21:29:20.461Z,12.79
2022-09-01T21:31:48.917Z,12.75
2022-09-01T21:34:17.356Z,12.71
2022-09-01T21:36:45.730Z,12.66
2022-09-01T21:39:14.857Z,12.60
2022-09-01T21:41:43.154Z,12.54
2022-09-01T21:44:11.753Z,12.50
2022-09-01T21:46:40.179Z,12.46
2022-09-01T21:49:08.585Z,12.43
2022-09-01T21:51:37.831Z,12.40
2022-09-01T21:54:06.228Z,12.36
2022-09-01T21:56:34.903Z,12.32
2022-09-01T21:59:03.187Z,12.27
2022-09-01T22:01:38.837Z,12.24
2022-09-01T22:04:07.240Z,12.21
2022-09-01T22:06:35.699Z,12.20
2022-09-01T22:09:07.653Z,12.18
2022-09-01T22:11:56.377Z,12.16
2022-09-01T22:14:34.855Z,12.12
2022-09-01T22:17:12.479Z,12.09
2022-09-01T22:19:40.955Z,12.05
2022-09-01T22:22:09.410Z,12.00
2022-09-01T22:24:37.902Z,11.96
2022-09-01T22:27:06.218Z,11.92
2022-09-01T22:29:34.531Z,11.92
2022-09-01T22:32:03.119Z,11.90
2022-09-01T22:34:34.752Z,11.89
2022-09-01T22:37:03.174Z,11.87
2022-09-01T22:39:31.609Z,11.85
2022-09-01T22:42:00.288Z,11.83
2022-09-01T22:44:29.041Z,11.78
2022-09-01T22:46:57.800Z,11.74
2022-09-01T22:49:26.083Z,11.72
2022-09-01T22:51:54.598Z,11.71
2022-09-01T22:54:23.280Z,11.69
2022-09-01T22:56:53.905Z,11.67
2022-09-01T22:59:24.780Z,11.65
2022-09-01T23:01:53.251Z,11.62
2022-09-01T23:04:23.469Z,11.60
2022-09-01T23:06:54.486Z,11.56
2022-09-01T23:09:23.435Z,11.52
2022-09-01T23:11:51.878Z,11.48
2022-09-01T23:14:20.182Z,11.45
2022-09-01T23:16:51.696Z,11.43
2022-09-01T23:19:22.053Z,11.43
2022-09-01T23:21:51.819Z,11.42
2022-09-01T23:24:20.232Z,11.40
2022-09-01T23:26:49.996Z,11.35
2022-09-01T23:29:18.330Z,11.31
2022-09-01T23:31:47.362Z,11.25
2022-09-01T23:34:16.940Z,11.21
2022-09-01T23:36:59.468Z,11.17
2022-09-01T23:39:37.349Z,11.12
2022-09-01T23:42:37.843Z,11.09
2022-09-01T23:45:19.152Z,11.08
2022-09-01T23:47:54.858Z,11.09
2022-09-01T23:50:27.261Z,11.10
2022-09-01T23:52:55.953Z,11.10
2022-09-01T23:55:24.391Z,11.09
2022-09-01T23:57:52.650Z,11.07
